EUROPE TAF - 19 Feb 2018 - 0152 UTC - RocketRoute WX - rrwx.com
EGPD 182305Z 1900/1924 16007KT 9999 SCT025 BECMG 1900/1903 6000 -RADZ BKN008 TEMPO 1902/1918 1200 RADZ BKN003 PROB30 TEMPO 1904/1912 0300 FG BKN001 BECMG 1917/1920 9999 NSW SCT025 PROB40 TEMPO 1922/1924 6000 RA BKN012 EGAA 182304Z 1900/1924 22007KT 9000 -RA SCT001 BKN012 TEMPO 1900/1902 1500 RA RADZ BKN001 BECMG 1902/1905 9999 NSW FEW007 BKN020 PROB40 1902/1914 3000 BR BKN003 PROB30 TEMPO 1907/1913 0700 FG BKN000 BECMG 1916/1919 30010KT TEMPO 1916/1920 5000 RA BKN008 PROB30 TEMPO 1917/1919 BKN003 EGKB   EGHH 182001Z 1821/1906 14005KT 8000 BKN007 TEMPO 1821/1906 2500 -RADZ BR BKN003 PROB40 1821/1906 0200 FG BKN001 EGGD 182259Z 1900/1924 19006KT 0200 -RADZ FG BKN001 TEMPO 1900/1912 1500 RADZ BR SCT001 BKN002 BECMG 1906/1909 28010KT BECMG 1912/1915 6000 NSW BKN007 BECMG 1915/1918 9999 SCT025 EGFF AMD 190003Z 1900/1924 28008KT 0300 FG BKN001 TEMPO 1900/1902 1000 RADZ TEMPO 1902/1909 8000 NSW SCT001 BECMG 1909/1912 9999 NSW SCT010 EGCN 182301Z 1900/1924 18005KT 9999 BKN016 BECMG 1900/1903 8000 BKN010 TEMPO 1900/1924 4000 BR -RADZ BKN008 PROB30 TEMPO 1903/1918 1200 BKN004 EGNV   EGNX AMD 190034Z 1900/1924 19005KT 8000 RA BKN015 BECMG 1900/1903 4000 -RADZ BKN004 PROB30 1900/1910 0300 FG BKN001 BECMG 1906/1909 29010KT BECMG 1909/1912 9999 NSW BKN008 BECMG 1912/1915 BKN012 BECMG 1915/1918 SCT015 EGPH 182305Z 1900/1924 06005KT 8000 -RA SCT015 TEMPO 1900/1907 1200 RADZ BKN004 PROB40 TEMPO 1900/1912 0300 FG BKN001 BECMG 1911/1914 9999 NSW TEMPO 1921/1924 6000 RA BKN008 EGTE   EGLF   EGPF 182301Z 1900/1924 04003KT 3000 -DZ BKN007 TEMPO 1900/1910 1100 DZ BR BKN003 TEMPO 1910/1912 6000 NSW BECMG 1912/1915 9999 NSW SCT016 TEMPO 1918/1923 7000 RA BKN010 EGJB 182258Z 1900/1909 31007KT 0200 DZ FG BKN000 PROB30 TEMPO 1900/1909 -DZ 0800 EGNJ 182002Z 1821/1906 18006KT 7000 FEW012 BKN022 TEMPO 1821/1824 5000 BR BECMG 1900/1903 5000 -RADZ BR BKN008 TEMPO 1903/1906 1200 BKN002 EGPE 182304Z 1900/1909 24005KT 9999 SCT025 TEMPO 1900/1909 4000 RADZ BKN006 PROB30 TEMPO 1900/1906 2000 BR BKN004 EGJJ 182258Z 1900/1909 VRB03KT 0200 DZ FG BKN000 PROB30 TEMPO 1900/1909 -DZ 0600 BECMG 1907/1909 32008KT EGPA 182304Z 1900/1909 13009KT 9999 FEW030 TEMPO 1900/1903 6000 -RADZ BKN009 TEMPO 1903/1909 2000 RADZ BR BKN004 EGNM COR 190137Z 1901/1924 23005KT 6000 -RADZ BKN005 TEMPO 1901/1909 2500 RADZ BR BKN002 PROB30 TEMPO 1901/1908 0200 FG BKN001 BECMG 1909/1912 29010KT 9999 NSW BKN025 PROB30 TEMPO 1912/1918 BKN012 EGGP AMD 190036Z 1900/1924 17005KT 0300 FG BKN001 TEMPO 1900/1912 4000 RADZ BKN004 BECMG 1902/1905 30010KT BECMG 1912/1915 9999 NSW BKN010 TEMPO 1915/1921 SCT010 BECMG 1921/1924 7000 BKN004 EGLC   EGKK 182300Z 1900/2006 18003KT 4000 -DZ BR BKN006 PROB30 TEMPO 1900/1910 0300 DZ FG BKN001 TEMPO 1910/2006 RADZ BKN003 BECMG 1912/1915 33010KT EGLL AMD 190135Z 1901/2006 18004KT 7000 BKN010 BECMG 1901/1903 BKN006 TEMPO 1901/1912 2000 RADZ BR BKN003 PROB30 TEMPO 1901/1908 1200 PROB30 TEMPO 1912/2006 3500 RADZ BKN004 EGGW AMD 190004Z 1900/1924 16005KT 6000 BKN004 BECMG 1901/1904 0300 -RADZ FG OVC000 TEMPO 1904/1924 3000 RADZ BKN003 BECMG 1910/1913 5000 -RADZ BKN005 BECMG 1915/1918 33010KT EGSS 182307Z 1900/2006 15004KT 9999 OVC025 BECMG 1900/1903 5000 -RADZ BKN005 TEMPO 1903/1924 2000 RADZ BKN002 PROB40 1904/1912 0300 FG OVC000 BECMG 1916/1919 33010KT PROB40 1921/2006 0300 FG BKN001 EGMD AMD 190054Z 1900/1909 21008KT 9999 BKN008 TEMPO 1900/1903 4000 BR BKN003 BECMG 1903/1906 2000 -DZ BR BKN002 EGCC AMD 190149Z 1901/2006 18005KT 2000 -DZ BR BKN004 TEMPO 1901/1904 1200 RADZ BECMG 1903/1906 31010KT PROB30 1904/1912 0300 DZ FG BKN001 BECMG 1912/1915 9999 NSW BKN006 TEMPO 1915/1921 SCT010 BECMG 1921/1924 6000 BKN004 PROB30 2000/2005 0300 FG BKN001 BECMG 2004/2006 9999 FEW015 EGMH   EGNT 182301Z 1900/1924 18005KT 6000 -RA BKN030 BECMG 1900/1903 BKN010 TEMPO 1900/1921 3000 RADZ BR BKN005 PROB40 TEMPO 1902/1920 BKN003 BECMG 1920/1924 9999 NSW SCT025 EGSH 181953Z 1821/1906 17008KT 9999 SCT030 PROB30 1822/1824 4000 BR EGPK 182301Z 1900/1924 20005KT 9999 FEW007 SCT018 BECMG 1900/1903 7000 BKN012 PROB40 TEMPO 1900/1910 3000 -DZ BR BKN005 BECMG 1910/1912 9999 SCT018 TEMPO 1919/1922 7000 RA BKN014 EGKA   EGHI   EGMC 182307Z 1900/1909 15005KT 9999 FEW035 BECMG 1900/1903 BKN009 TEMPO 1904/1909 3000 RADZ BKN004 EGPC 182304Z 1900/1909 15009KT 9999 FEW030 TEMPO 1900/1903 6000 -RADZ BKN008 TEMPO 1903/1909 2000 RADZ BR BKN003 LXGB   EDDB 182300Z 1900/1924 15004KT 9999 SCT035 BECMG 1915/1918 09005KT EDDW 182300Z 1900/1924 16003KT CAVOK PROB30 TEMPO 1904/1908 4000 BR TEMPO 1911/1914 19008KT EDDC 182300Z 1900/1924 16007KT 9999 SCT035 BECMG 1915/1918 10005KT EDDL 182300Z 1900/2006 17008KT CAVOK BECMG 1913/1916 12003KT EDFH 182300Z 1900/1924 13005KT 9999 FEW010 PROB30 TEMPO 1900/1924 BKN005 PROB30 TEMPO 1904/1910 2000 BCFG EDDF 182300Z 1900/2006 VRB03KT 9999 FEW020 PROB30 TEMPO 1900/2006 BKN014 EDDH 182300Z 1900/2006 18004KT CAVOK BECMG 1923/2001 08005KT EDDV 182300Z 1900/1924 18004KT CAVOK BECMG 1922/1924 08005KT EDAH   EDSB 181700Z 1818/1918 VRB03KT 5000 BR SCT008 BKN020 BECMG 1818/1821 3000 BR BKN008 TEMPO 1820/1909 2000 BR BKN004 BECMG 1911/1914 6000 SCT010 EDVK 182000Z 1821/1903 VRB03KT CAVOK EDDK 182300Z 1900/2006 12004KT CAVOK ETNL 182300Z 1900/1912 18005KT 9999 NSW BKN100 TEMPO 1903/1907 20003KT 5000 BR BKN100 BY ETGL EDDP 182300Z 1900/1924 17006KT CAVOK BECMG 1912/1915 10005KT EDHL   EDDM 182300Z 1900/2006 06006KT 7000 FEW007 BECMG 1901/1903 4000 BR OVC008 BECMG 1908/1910 8000 OVC012 TEMPO 1910/1913 BKN015 BECMG 1913/1916 VRB03KT BKN015 EDDG 182300Z 1900/1924 13003KT CAVOK PROB30 TEMPO 1906/1908 4000 BR EDDN 182300Z 1900/1924 08005KT 9999 BKN030 BECMG 1911/1913 VRB03KT EDLP 182300Z 1900/1924 15004KT CAVOK EDDR 182300Z 1900/1924 07004KT 9999 FEW015 PROB30 TEMPO 1900/1924 BKN008 PROB30 TEMPO 1904/1908 4000 BR EDDS 182300Z 1900/1924 VRB03KT 9999 SCT020 PROB30 TEMPO 1900/1924 BKN014 PROB30 TEMPO 1904/1910 4000 BR EDXW   EDDT 182300Z 1900/1924 16004KT 9999 SCT035 BECMG 1915/1918 10005KT LFLB 181700Z 1818/1918 36010KT 9999 BKN035 BECMG 1910/1913 CAVOK LFBZ 182300Z 1900/1924 30008KT 8000 BKN012 PROB40 1900/1924 1500 DZ OVC004 LFLC 182000Z 1821/1921 36005KT 9999 SCT034 PROB40 1900/1909 3000 BR PROB30 TEMPO 1903/1907 0600 BCFG BKN002 LFSB 182300Z 1900/1924 34004KT 2500 BR OVC003 TEMPO 1900/1908 0800 BCFG OVC002 PROB40 TEMPO 1900/1907 0300 FZFG VV/// BECMG 1909/1911 6000 NSW SCT008 BKN180 TEMPO 1914/1918 CAVOK TEMPO 1918/1924 BKN025 OVC100 LFBL 182300Z 1900/1924 VRB03KT 4000 BR NSC TEMPO 1900/1907 0400 FG VV/// BECMG 1907/1909 9999 NSW BKN008 BECMG 1910/1912 SCT020 BECMG 1918/1920 BKN008 PROB40 TEMPO 1921/1924 4000 -RADZ BKN004 LFBI AMD 190025Z 1900/1924 VRB03KT 8000 BKN020 TEMPO 1900/1908 0400 FG VV/// TEMPO 1908/1910 1500 BR OVC005 BECMG 1916/1918 4000 -DZ OVC010 PROB40 1918/1924 1500 DZ OVC004 LFBO 182300Z 1900/2006 VRB03KT 8000 BKN006 OVC012 TEMPO 1900/1906 4000 BR BKN004 BECMG 1907/1909 9999 SCT011 BKN017 BECMG 1911/1913 31006KT SCT018 BKN030 BECMG 1919/1921 BKN012 PROB40 TEMPO 1921/2006 4000 -RADZ OVC008 LFRB 182300Z 1900/2006 33007KT 0900 FG VV/// TEMPO 1900/1909 2000 DZ OVC003 BECMG 1912/1915 5000 BKN010 TEMPO 1922/2006 3000 DZ OVC005 LFLY 182300Z 1900/1924 35008KT 9999 BKN030 PROB30 TEMPO 1905/1909 VRB02KT 3000 BR BKN005 LFRK   LFMN 182000Z 1821/2003 35010KT 9999 FEW040 BKN080 BECMG 1910/1912 18010KT CAVOK BECMG 1913/1914 VRB05KT TEMPO 1917/1920 21010KT FEW040TCU LFST 182300Z 1900/1924 36005KT 4000 BR SCT005 BKN030 PROB30 TEMPO 1900/1910 2000 BR OVC004 BECMG 1911/1914 CAVOK LFTW 181400Z 1815/1915 36013KT CAVOK LFRH 182300Z 1900/1924 33005KT 9999 FEW010 SCT050 PROB30 TEMPO 1905/1907 0800 FG VV/// BECMG 1907/1909 4000 RADZ BKN002 OVC007 BECMG 1913/1915 9999 NSW OVC008 BECMG 1920/1922 BKN025 LFPB 182300Z 1900/1924 15006KT CAVOK PROB30 TEMPO 1902/1906 4000 BR BECMG 1909/1911 BKN020 TEMPO 1911/1917 4000 -DZRA BECMG 1913/1916 BKN008 TEMPO 1918/1924 SCT002 BKN004 LFQQ 182300Z 1900/2006 16008KT 8000 NSC BECMG 1910/1913 OVC012 TEMPO 1913/1920 2000 DZ OVC006 FM192000 18005KT 8000 OVC006 BECMG 2004/2006 09010KT NSW LFAT   LFMT 182000Z 1821/1921 35010KT CAVOK TEMPO 1913/1917 19005KT LFBD 182300Z 1900/2006 11004KT 7000 BKN012 PROB40 1900/2006 1500 DZ OVC004 PROB30 TEMPO 1900/1906 0500 FG OVC002 TX10/1914Z TN07/1906Z LFRS 182300Z 1900/2006 16005KT 9999 BKN009 BKN016 TEMPO 1900/2006 2000 DZ BR BKN002 LFKJ 182000Z 1821/1921 06005KT 9999 BKN030 PROB40 TEMPO 1901/1915 SHRA BKN014 LFPG 182300Z 1900/2006 15006KT CAVOK PROB30 TEMPO 1902/1906 4000 BR BECMG 1909/1911 BKN020 TEMPO 1911/1917 4000 -DZRA BECMG 1913/1916 BKN008 TEMPO 1918/2006 SCT002 BKN004 TX07/1915Z TN01/1903Z LFPO 182300Z 1900/2006 13005KT CAVOK TEMPO 1900/1903 2500 BR TEMPO 1912/1924 4000 -RA BKN014 PROB40 TEMPO 1915/1918 2000 -RA BKN007 PROB30 TEMPO 1918/2006 1500 BR BKN004 LFRD 182300Z 1900/1924 VRB03KT 4000 BR OVC010 TEMPO 1900/1920 2000 DZ BKN002 PROB30 TEMPO 1900/1908 0800 FG VV/// BECMG 1908/1910 6000 NSW BECMG 1911/1913 30008KT BECMG 1916/1918 31012KT BECMG 1920/1922 BKN015 PROB40 TEMPO 1920/1924 3000 DZ BKN005 LFKB 182000Z 1821/1921 34010KT 9999 FEW015 BKN033 PROB30 TEMPO 1821/1912 BKN014 BECMG 1916/1918 24005KT TX13/1915Z TN07/1904Z LFML AMD 182049Z 1821/2003 35007KT CAVOK BECMG 1821/1824 VRB03KT SCT026 BECMG 1903/1905 BKN030 PROB40 TEMPO 1904/1908 -SHRA BECMG 1910/1912 26007KT FEW040 BECMG 1914/1916 31010KT CAVOK TX11/1913Z TN03/1903Z LFMP 181400Z 1815/1915 33016KT CAVOK PROB30 TEMPO 1815/1817 32015G30KT BECMG 1818/1821 33006KT BKN070 TEMPO 1909/1915 SCT015 BKN050 LFLL 182300Z 1900/2006 34005KT 9999 BKN027 PROB40 TEMPO 1905/1911 2000 BR BKN005 PROB30 TEMPO 1905/1908 0600 FG VV/// LFRN 182300Z 1900/1924 VRB03KT 6000 OVC010 TEMPO 1900/1920 3000 DZ BR BKN003 PROB30 TEMPO 1900/1908 1500 BR VV/// BECMG 1915/1917 32010KT BECMG 1920/1922 BKN015 PROB40 TEMPO 1920/1924 3000 DZ BKN005 LFOB 182300Z 1900/1924 14005KT CAVOK BECMG 1910/1913 OVC012 TEMPO 1913/1924 2000 DZRA OVC002 LFPN 181700Z 1818/1903 16004KT CAVOK TEMPO 1820/1903 3000 BR LFOT 182300Z 1900/1924 VRB02KT 9999 BKN028 PROB30 TEMPO 1900/1902 4000 BR TEMPO 1903/1912 2000 -RA BKN006 PROB30 TEMPO 1905/1909 1200 BR BKN004 TEMPO 1915/1918 4000 -RA BKN008 TEMPO 1918/1924 2000 RA BKN004 EBBR COR 182300Z 1900/2006 18005KT CAVOK EBCI COR 182300Z 1900/2006 18005KT CAVOK PROB40 2003/2006 4000 BR BKN005 EBAW 182300Z 1900/1909 18004KT CAVOK EBLG COR 182300Z 1900/2006 17008KT CAVOK EBOS COR 182300Z 1900/2006 17008KT 9999 SCT025 BKN045 BECMG 1914/1916 SCT004 BKN010 TEMPO 1915/2006 3500 -DZRA BKN004 EHEH 182327Z 1900/2006 18003KT CAVOK PROB40 TEMPO 1900/1908 3000 MIFG BECMG 1918/1921 09003KT EHGG 182309Z 1900/2006 18005KT 6000 NSC PROB40 1900/1906 1500 BCFG BR BECMG 1906/1909 9999 SCT020 BECMG 1920/1923 4500 BR MIFG PROB30 1920/2006 1500 BCFG EHBK 182309Z 1900/2006 18005KT CAVOK PROB30 TEMPO 2000/2006 2500 BR EHRD 182237Z 1900/2006 17006KT CAVOK PROB30 1903/1908 6000 PROB40 2001/2006 4000 MIFG BR EHAM 182240Z 1900/2006 16006KT 7000 NSC PROB30 TEMPO 1903/1908 4500 BR BECMG 1907/1909 CAVOK PROB30 2001/2006 4000 MIFG BR ELLX 182300Z 1900/2006 13005KT 3000 BR BKN009 BECMG 1908/1910 9999 NSW SCT014 TEMPO 1912/2006 VRB02KT BECMG 1920/1922 BKN012 TEMPO 2000/2006 3000 BR -SG BKN006 LOWG 182315Z 1900/1924 VRB02KT 9999 BKN040 TX03/1914Z TNM03/1907Z PROB30 TEMPO 1903/1910 2000 BR BKN004 TEMPO 1917/1924 15006KT 6000 -SN SCT012 BKN030 LOWI 182315Z 1900/1924 09005KT 9999 SCT015 SCT040 BKN060 TX05/1914Z TNM03/1906Z TEMPO 1900/1908 BKN013 BECMG 1908/1910 CAVOK LOWK 182315Z 1900/1924 07005KT 9999 SCT040 BKN100 TX01/1913Z TNM04/1908Z PROB30 TEMPO 1900/1906 2000 FZBCFG BKN007 TEMPO 1914/1924 16008KT 6000 -SHSN SCT020 BKN040 LOWL 182315Z 1900/1924 09007KT 9999 SCT040 TX04/1914Z TNM04/2000Z PROB30 TEMPO 1902/1908 09005KT 6000 SCT005 BKN008 BECMG 1908/1910 CAVOK BECMG 1917/1919 VRB02KT LOWS 182315Z 1900/1924 VRB02KT 8000 FEW020 TX04/1914Z TNM07/1906Z TEMPO 1900/1907 3500 BR SCT003 PROB30 TEMPO 1902/1907 0800 FZBCFG BKN007 BECMG 1908/1910 34006KT CAVOK BECMG 1918/1920 VRB02KT 6000 NSC TEMPO 1920/1924 4000 BR LOWW 182315Z 1900/2006 35004KT CAVOK TX03/1914Z TNM05/1906Z PROB40 1905/1908 VRB02KT 4000 BR FEW001 BECMG 1908/1910 15010KT BECMG 1916/1919 14003KT BECMG 2000/2002 06005KT 8000 -SN FEW020 BKN030 PROB30 TEMPO 2003/2006 2500 SN BKN010 LOAN   LOXZ   LSMA   LFSB 182300Z 1900/1924 34004KT 2500 BR OVC003 TEMPO 1900/1908 0800 BCFG OVC002 PROB40 TEMPO 1900/1907 0300 FZFG VV/// BECMG 1909/1911 6000 NSW SCT008 BKN180 TEMPO 1914/1918 CAVOK TEMPO 1918/1924 BKN025 OVC100 LSZB   LSZC   LSMD   LSME   LSZR   LSGG 182325Z 1900/2006 05005KT 9999 OVC025 TX05/1915Z TNM01/1906Z TNM01/2006Z LSZG   LSGC   LSZL   LSZA   LSMM   LSMP   LSZS   LSGS   LSZH 182325Z 1900/2006 32004KT 9999 FEW010 BKN030 TX01/1914Z TNM01/1906Z TNM03/2006Z TEMPO 1901/1910 BKN010 TEMPO 1914/1921 SCT018 PROB40 1915/1921 CAVOK PROB40 2000/2006 4000 BR BKN010 LEAL 182300Z 1900/1924 VRB03KT 9999 FEW012 BKN025 TX16/1912Z TN08/1906Z PROB30 TEMPO 1900/1908 3000 BR BKN012 TEMPO 1902/1908 36007KT BECMG 1912/1914 12008KT BECMG 1918/1920 29007KT LEAM 182000Z 1821/1921 07010KT 9999 SCT040 TX17/1914Z TN11/1906Z BECMG 1822/1824 34005KT BECMG 1911/1913 09010KT LEAS 182000Z 1821/1921 25007KT 9999 SCT010 BKN050 TX12/1914Z TN08/1905Z PROB30 TEMPO 1821/1910 BKN010 TEMPO 1910/1918 31010KT PROB30 TEMPO 1821/1921 RA LEBZ 182300Z 1900/1924 02007KT CAVOK TX18/1915Z TN03/1907Z LEBL 182300Z 1900/1924 34008KT 9999 SCT030 TX14/1912Z TN07/1906Z PROB40 TEMPO 1904/1910 33010G20KT BECMG 1910/1912 10007KT TEMPO 1910/1917 BKN014 BECMG 1918/1920 VRB03KT LEBB 182300Z 1900/1924 30008KT 9999 -RA SCT010 BKN025 TX12/1914Z TN09/1906Z TEMPO 1900/1924 3000 RA BKN010 LEGR 182000Z 1821/1921 27004KT 9999 FEW050 TX17/1914Z TN02/1907Z LEIB 182000Z 1821/1921 05005KT 9999 BKN020 TX15/1913Z TN07/1906Z TEMPO 1821/1909 3000 BR BKN014 BECMG 1910/1912 22009KT FEW020 LEJR 182300Z 1900/1924 VRB03KT 9999 FEW025 TX20/1915Z TN06/1907Z PROB40 TEMPO 1900/1909 4000 BR BKN010 PROB30 TEMPO 1900/1909 0200 FG VV001 LELN 181700Z 1818/1903 01010KT 9999 FEW045 LEMD 182300Z 1900/2006 02006KT 9999 SCT050 TX15/1915Z TN03/1906Z TEMPO 1912/1918 01010KT PROB30 TEMPO 1913/1918 01012G22KT LEMG 182300Z 1900/1924 29006KT 9999 SCT020 TX17/1914Z TN11/1907Z PROB40 TEMPO 1900/1908 4000 RA BR BKN014 BECMG 1912/1914 13007KT BECMG 1922/1924 29006KT LEMH 182000Z 1821/1921 35006KT 9999 SCT030 TX15/1913Z TN06/1906Z TEMPO 1909/1915 26008KT PROB40 TEMPO 1911/1917 RA BKN020 LELC 182300Z 1900/1924 01004KT 9999 SCT015 TX17/1915Z TN09/1907Z BECMG 1911/1913 08010KT PROB40 TEMPO 1900/1906 BKN014 LEPA 182300Z 1900/1924 VRB03KT 9999 SCT020 TX14/1912Z TN05/1906Z PROB30 TEMPO 1900/1908 4000 BR BKN012 PROB30 TEMPO 1906/1918 RA BKN020 BECMG 1910/1912 22008KT BECMG 1917/1919 VRB03KT LERS 182000Z 1821/1921 VRB03KT 9999 FEW030 TX16/1913Z TN06/1906Z TEMPO 1902/1908 4000 BR BECMG 1910/1912 14009KT BECMG 1910/1912 15008KT LEXJ 182000Z 1821/1921 28007KT 9999 SCT005 BKN020 TX12/1914Z TN08/1905Z TEMPO 1821/1921 3000 RA BKN010 PROB40 TEMPO 1912/1918 30015G25KT LEST 182300Z 1900/1924 03006KT 9999 FEW030 TX11/1914Z TN05/1924Z TEMPO 1900/1909 3000 BR PROB40 TEMPO 1902/1908 0800 BCFG BKN005 PROB30 TEMPO 1903/1908 0350 FG VV001 LEZL 182000Z 1821/1921 05006KT 9999 FEW020 TX20/1915Z TN06/1907Z PROB40 TEMPO 1902/1908 4000 BR LEVC 182300Z 1900/1924 VRB03KT 9999 SCT040 TX18/1913Z TN06/1906Z PROB30 TEMPO 1900/1908 4000 BR TEMPO 1914/1918 12008KT TEMPO 1922/1924 31007KT LEVD 182300Z 1900/1924 06006KT 9999 SCT040 TX11/1915Z TN00/1906Z TEMPO 1912/1918 01012KT LEVT 182300Z 1900/1924 31007KT 9999 SCT015 BKN030 TX09/1914Z TN05/1906Z PROB40 TEMPO 1900/1924 3000 RA BKN010 LEZG 182300Z 1900/1924 29015KT 9999 BKN040 TX14/1913Z TN07/1907Z PROB30 TEMPO 1900/1908 RA BKN030 TEMPO 1911/1922 30020G32KT GCLP 182000Z 1821/1921 33012KT 9999 FEW030 TX20/1914Z TN15/1906Z BECMG 1910/1912 03015KT GCRR 182000Z 1821/1921 35012KT 9999 FEW030 TX20/1914Z TN13/1906Z GCXO 182000Z 1821/1921 33012KT 9999 SCT015 TX15/1914Z TN09/1906Z PROB40 TEMPO 1909/1912 4500 DZRA BKN005 GCTS 182000Z 1821/1921 09015KT 9999 FEW035 TX22/1914Z TN13/1906Z BECMG 1821/1822 36005KT LPFR 182300Z 1900/1924 VRB03KT CAVOK TEMPO 1902/1908 03007KT BECMG 1910/1912 19008KT BECMG 1916/1918 27008KT BECMG 1920/1922 VRB03KT LPPT 182300Z 1900/2006 04008KT CAVOK BECMG 1915/1917 34012KT BECMG 2000/2002 04008KT LPMA 182300Z 1900/1924 02012KT 9999 SCT015 TEMPO 1900/1906 8000 SHRA BKN015 FEW018TCU PROB30 TEMPO 1912/1918 02017G27KT LPPD 182300Z 1900/1924 19005KT 9999 FEW025 TEMPO 1900/1924 SCT020 BKN040 PROB30 1906/1911 12008KT BECMG 1911/1915 14007KT LPPR 182300Z 1900/1924 VRB03KT CAVOK BECMG 1912/1914 33010KT BECMG 1920/1922 VRB03KT LPPS 182300Z 1900/2006 06012KT 9999 FEW015 SCT030 TEMPO 1900/2006 SCT015 BKN030 BECMG 1902/1905 03012KT LPAZ 182300Z 1900/2006 VRB05KT 9999 FEW025 TEMPO 1900/1918 SCT020 BKN040 BECMG 1911/1914 15008KT BECMG 1920/1923 10010KT FEW018 BKN035 LPST   LIEA 182300Z 1900/1924 VRB06KT 9999 SCT030 LIBD 182300Z 1900/1924 VRB06KT 7000 SCT030 TEMPO 1900/1912 RA LIME 182300Z 1900/1924 VRB05KT 6000 BKN020 LIPE 182300Z 1900/1924 VRB05KT 7000 BKN020 TEMPO 1900/1909 3000 RA LIRN 182300Z 1900/1924 VRB05KT 8000 SCT020 BKN040 TEMPO 1900/1915 4000 SHRA TEMPO 1915/1924 RA LICC 182300Z 1900/1924 VRB06KT 9999 SCT040 TEMPO 1912/1918 RA LIRA 182300Z 1900/1924 VRB05KT 8000 SCT030 TEMPO 1900/1906 3000 BR TEMPO 1912/1924 4000 RA LIBC 181100Z 1812/1912 20012KT 9999 FEW040 BECMG 1818/1820 VRB05KT TEMPO 1822/1906 RA BECMG 1902/1904 36010KT LIEE 182300Z 1900/1924 32010KT 9999 SCT030 LIPY 182300Z 1900/1924 VRB06KT 6000 BKN012 TEMPO 1900/1915 2000 RA LIRF 182300Z 1900/2006 VRB06KT 8000 SCT030 TEMPO 1900/1906 2000 BCFG TEMPO 1912/1918 4000 RA LIMJ 182300Z 1900/1924 04008KT 9999 SCT050 TEMPO 1909/1916 01015G25KT LICD 181700Z 1818/1918 24007KT 9999 SCT020 TEMPO 1818/1824 RA BECMG 1821/1823 34018G28KT LIML 182300Z 1900/1924 VRB05KT 6000 SCT020 BKN050 LIMC 182300Z 1900/2006 VRB05KT 6000 BKN012 LIEO 182300Z 1900/1924 28010KT 9999 SCT030 BECMG 1917/1919 VRB04KT LICJ 182300Z 1900/1924 29010KT 9999 SCT025 TEMPO 1900/1906 RA LIBP 182300Z 1900/1924 VRB06KT 7000 SCT025 BKN050 TEMPO 1900/1915 3000 RA LIRP 182300Z 1900/1924 09010KT 9999 SCT025 SCT060 TEMPO 1818/1906 5000 RA LICR 181700Z 1818/1918 VRB05KT 9999 SCT040 TEMPO 1818/1821 RA LIMF 182300Z 1900/1924 VRB05KT 4000 BR BKN020 LIRU   LIPZ 182300Z 1900/2006 06015KT 9999 SCT040 BECMG 1906/1908 VRB06KT EETN 182325Z 1900/1924 02007KT 9999 BKN012 PROB40 TEMPO 1900/1908 3000 SN BR BKN005 OVC012 EETU   EVRA 182301Z 1900/1924 VRB02KT 7000 BKN015 TEMPO 1900/1909 0700 FZFG BKN001 TEMPO 1909/1915 BKN010 BECMG 1912/1914 03005KT EVLA AMD 190146Z 1901/1924 VRB02KT 8000 BKN015 TEMPO 1901/1906 0700 FZFG BKN002 TEMPO 1906/1918 3000 SHRASN BKN010CB BECMG 1910/1912 06005KT EYKA 182302Z 1900/1924 26012KT 5000 BR BKN005 OVC012 TEMPO 1900/1908 2000 SN TEMPO 1908/1913 3000 SN TEMPO 1915/1920 0800 +SN OVC003 TEMPO 1920/1924 1000 OVC003 EYSA 182305Z 1900/1909 28010KT 7000 BKN007 OVC015 TEMPO 1900/1903 3000 SN BKN004 TEMPO 1906/1909 1000 +SN BKN003 EYPA 182308Z 1900/1924 24008KT 5000 BR OVC007 TEMPO 1903/1911 0800 SNRA BKN004 TEMPO 1911/1916 1200 SNRA BKN005 TEMPO 1916/1920 2000 SNRA BKN005 TEMPO 1920/1924 0500 FZFG VV002 EYVI 182303Z 1900/1924 25010KT 3000 SN BR BKN005 OVC012 TEMPO 1900/1908 0800 +SN BKN003 TEMPO 1915/1920 0800 +SN BKN003 TEMPO 1920/1924 0500 FZFG VV002 UMKK 182256Z 1900/1924 24003G08MPS 3100 -SN BR OVC011 TEMPO 1900/1912 VRB01MPS 0400 SHSNRA FZFG BKN002 BKN012CB BECMG 1914/1916 20002MPS TEMPO 1916/1924 0800 FZFG EKYT 182319Z 1900/1924 20006KT 5000 BKN015 TEMPO 1900/1918 1500 -RASN BR BKN003 BECMG 1907/1910 VRB05KT BECMG 1915/1918 06012KT TEMPO 1918/1924 2500 -SN EKAH 182314Z 1900/1924 20005KT 9999 FEW030 BECMG 1903/1905 4000 BR BKN008 TEMPO 1905/1924 1200 -RA BR BKN002 EKBI 182314Z 1900/1924 21006KT 9000 BKN025 BECMG 1900/1903 4000 BR BKN008 TEMPO 1903/1924 1200 -RA BR BKN002 EKRN   EKEB   EKKA 182319Z 1900/1924 20006KT 5000 BKN015 TEMPO 1900/1924 1500 -RASN BR BKN003 BECMG 1911/1914 VRB03KT BECMG 1915/1918 04006KT EKCH 182314Z 1900/1924 22008KT 9999 FEW030 BECMG 1910/1912 BKN010 TEMPO 1912/1921 BKN015 BECMG 1921/1923 SCT020 EKOD   EKRK 182320Z 1900/1909 19003KT 9999 FEW030 TEMPO 1903/1909 3000 BR EKSP 182319Z 1900/1924 20005KT 9999 SCT015 TEMPO 1900/1903 4000 BR TEMPO 1903/1905 4000 BR BKN012 TEMPO 1905/1910 1800 BR -RA BKN004 TEMPO 1910/1920 4000 BR BKN008 TEMPO 1920/1924 1800 -RASN BKN004 EKVD   ESTA   ESNZ   ESGP   ESGG 182330Z 1900/1924 19010KT 5000 -SN SCT003 BKN010 TEMPO 1900/1902 1400 SNRA BR OVC003 PROB40 1902/1908 0700 FZFG VV002 BECMG 1903/1905 VRB02KT TEMPO 1908/1916 3000 RASN OVC006 BECMG 1916/1918 08010KT SCT010 BKN017 PROB40 1918/1924 1200 BR BKN004 ESMT   ESMQ   ESNQ   ESPA   ESMS 182315Z 1900/1924 22008KT 9999 SCT035 PROB40 1902/1905 0500 FZFG VV002 BECMG 1905/1907 2000 BR BKN005 TEMPO 1907/1924 5000 NSW BKN012 ESSL   ESSA 182330Z 1900/1924 VRB02KT 6000 -SN SCT005 BKN015 PROB40 1900/1906 1400 BKN004 BECMG 1905/1908 06012KT ESSB   ESKN 182330Z 1900/1924 24003KT 9999 -SN BKN035 TEMPO 1900/1908 2500 BKN008 PROB40 1908/1910 BKN014 ESNU AMD 190122Z 1901/1909 05005KT 9999 BKN012 PROB40 1901/1906 4000 -SN BR OVC003 PROB40 1906/1909 4000 -SN BR OVC009 ESSV   ENAN 1900/1924 20008KT CAVOK ENAT   ENHF 182300Z 1900/1909 VRB05KT 9999 SCT050 ENDU 1900/1924 VRB05KT CAVOK ENBO 1900/1924 09015KT 9999 BKN040 TEMPO 1900/1903 4000 -SN VV020 ENEV   ENBR 1900/1924 15005KT 9999 SCT020 PROB30 1900/1908 2000 BCFG BKN002 ENFL   ENGM 1900/1924 02005KT 8000 -SN SCT008 BKN015 TEMPO 1900/1915 4000 -SN BKN008 ENHD   ENCN   ENTC 1900/1924 18006KT CAVOK ENFB   ENSB 1900/1924 12008KT 9999 FEW010 BKN020 TEMPO 1918/1924 2000 SHSN VV010 ENNK   ENRO   ENRY 1900/1924 35005KT 6000 FEW003 BKN015 TEMPO 1900/1905 2000 BR BKN004 TEMPO 1905/1910 4000 -SN BKN008 BECMG 1912/1914 06010KT ENZV 1900/1924 12005KT 9999 FEW020 PROB40 1900/1907 2000 BCFG BKN002 ENVA 1900/1924 10005KT CAVOK ENAL   EFET   EFTP 182334Z 1900/2000 01002KT 9999 FEW010 PROB30 TEMPO 1900/1906 3000 BR BKN003 EFTU 182329Z 1900/1924 06004KT 5000 OVC004 BECMG 1900/1902 8000 NSC TEMPO 1902/1908 4000 BR BKN005 BIAR 182248Z 1900/1924 18005KT 9999 SCT040 OVC055 TX06/1911Z TNM04/1900Z BECMG 1900/1903 14020G30KT 5000 SNRA OVC030 PROB40 TEMPO 1900/1909 16030G45KT BECMG 1903/1906 9999 NSW SCT025 BKN035 BECMG 1918/1921 20015KT BIEG 182248Z 1900/1924 12015KT 9999 SCT030 BKN050 TX07/1914Z TNM03/1900Z BECMG 1900/1903 13025G35KT 5000 SN OVC030 BECMG 1903/1906 12038G50KT 9999 RA BECMG 1909/1912 14025G35KT NSW BECMG 1921/1924 18015KT BKN030 BIKF 182248Z 1900/1924 12040G53KT 7000 RADZ BKN012 OVC020 TX06/1904Z TN03/1924Z BECMG 1900/1903 13025KT 9999 RA BECMG 1903/1906 16015KT BECMG 1906/1909 15025KT BECMG 1909/1912 15030G40KT 9999 BKN020 TEMPO 1909/1924 5000 SHRA BKN010CB BECMG 1921/1924 21030G40KT BIRK 182248Z 1900/1924 12035G50KT 9999 RA BKN015 OVC025 TX07/1905Z TN03/1924Z BECMG 1901/1903 14025G35KT 9999 BECMG 1904/1907 15015KT NSW BECMG 1908/1911 15025G35KT TEMPO 1912/1924 6000 SHRA BKN015CB BECMG 1921/1924 21025G35KT BGJN   BGSF   BGKK   BGBW   BGGH   BGTL   BGSS   EIDW 182300Z 1900/1924 26011KT 7000 FEW003 BKN007 TEMPO 1900/1909 2000 BR -DZ BKN003 PROB30 TEMPO 1902/1907 0800 FG BKN001 BECMG 1909/1912 SCT010 BKN020 TEMPO 1917/1920 -RA BKN010 PROB40 TEMPO 1917/1920 5000 BECMG 1919/1921 31015KT BECMG 1921/1924 29010KT EINN 182300Z 1900/1924 23008KT 6000 SCT004 OVC010 TEMPO 1900/1913 3000 -DZ BR BKN004 BECMG 1908/1911 20008KT BECMG 1913/1916 25012KT TEMPO 1913/1916 4000 -RA BKN006 BECMG 1916/1918 31013KT BKN020 EICK 182300Z 1900/1924 24006KT 9999 SCT008 BKN012 BECMG 1900/1903 3000 -DZ BR BKN004 PROB40 TEMPO 1900/1909 0400 FG BKN001 BECMG 1911/1914 9999 NSW BKN020 TEMPO 1915/1918 5000 -RA BKN010 BECMG 1916/1918 32015KT EIKN 182300Z 1900/1924 24008KT 2000 BR BKN003 TEMPO 1900/1915 0200 FG -DZ BKN001 BECMG 1912/1915 28010KT BECMG 1915/1917 30012KT 9999 NSW BKN020 EPGD 182330Z 1900/1924 25005KT 9999 BKN035 EPKK 182330Z 1900/1924 VRB02KT 9999 BKN035 TEMPO 1900/1906 2000 BR BECMG 1906/1909 09010KT EPKT 182330Z 1900/1924 16003KT 9999 BKN030 TEMPO 1900/1906 3000 BR BECMG 1906/1909 11010KT EPMO 182330Z 1900/1924 24004KT 9999 BKN045 PROB30 1903/1907 4000 BR EPPO 182330Z 1900/1924 VRB02KT 9999 BKN035 PROB40 1900/1907 3000 BR EPWA 182330Z 1900/1924 24004KT 9999 BKN050 PROB30 1903/1907 4500 BR LGAV 182300Z 1900/1924 VRB05KT 9999 FEW025 BKN070 PROB30 1900/1906 5000 BR SCT004 BECMG 1901/1903 01015KT LGIR 182300Z 1900/1924 VRB05KT 9999 SCT020 BKN080 BECMG 1909/1911 30010KT BECMG 1918/1920 18010KT LGKO 182300Z 1900/1924 32010KT 9999 FEW020 BECMG 1918/1920 VRB05KT LGMK 182300Z 1900/1909 34016KT 9999 FEW020 LGRP 182300Z 1900/1924 26010KT 9999 FEW020 LGSA 182300Z 1900/1924 VRB05KT 9999 FEW020 SCT100 TEMPO 1907/1915 30010KT PROB30 1900/1906 5000 BR SCT004 BKN100 PROB30 TEMPO 1915/1924 5000 RA SCT010 BKN020 PROB30 TEMPO 1921/1924 5000 TSRA FEW016CB BKN020 BKN080 LGSR 182300Z 1900/1924 30012KT 9999 FEW025 BECMG 1918/1920 VRB05KT LGTS 182300Z 1900/1924 VRB03KT 9999 FEW010 BKN025 PROB40 TEMPO 1903/1918 7000 RA BECMG 1919/1921 10008KT LTAI 182240Z 1900/1924 34006KT CAVOK BECMG 1906/1910 15010KT SCT030 BECMG 1914/1918 02006KT BKN030 PROB30 1920/1924 -SHRA LTBA 182240Z 1900/2006 02009KT CAVOK BECMG 1903/1906 SCT025 BKN100 BECMG 1907/1911 03015G25KT BECMG 1919/1922 BKN012 BKN030 LTBJ 182240Z 1900/1924 VRB02KT CAVOK BECMG 1908/1911 SCT030 BKN100 LTBS 182240Z 1900/1924 VRB02KT CAVOK BECMG 1903/1905 FEW030 BKN120 LMML 182300Z 1900/1924 27005KT 9999 SCT015 SCT045 TEMPO 1900/1911 7000 RA PROB40 1900/1909 BKN008 BKN012 PROB30 1902/1911 4000 TSRA BKN012CB BECMG 1905/1908 29015KT PROB40 1917/1924 8000 SHRA BKN015TCU LLBG 182303Z 1900/1924 16006KT 9999 SCT030 TEMPO 1900/1907 BKN025 BECMG 1907/1909 25010KT BECMG 1913/1915 31008KT CAVOK BECMG 1918/1920 09004KT TX19/1912Z TN12/1904Z LLSD 182310Z 1900/1924 19008KT 9999 SCT030 TEMPO 1900/1907 BKN025 BECMG 1907/1909 26012KT BECMG 1913/1915 32008KT CAVOK BECMG 1918/1920 07004KT PROB40 1920/1924 8000 SCT015 TX19/1913Z TN13/1904Z GMAD 182300Z 1900/2006 17004KT 2000 BR BKN005 BECMG 1905/1907 0800 FG BKN003 BECMG 1909/1911 26010KT 9999 SCT016 GMMN 182300Z 1900/2006 10004KT 5000 FEW006 TEMPO 1900/1908 3000 BR SCT004 PROB30 TEMPO 1904/1907 VRB02KT 0600 FG BECMG 1908/1912 02010KT 9999 SCT016 GMMX 182300Z 1900/2006 VRB02KT 8000 NSC PROB30 TEMPO 1904/1909 4000 BR SCT008 TEMPO 1914/1920 34014KT SCT030 HECA 182300Z 1900/2006 VRB03KT CAVOK TEMPO 1900/1907 4000 BR NSC PROB30 TEMPO 1903/1906 3000 BECMG 1910/1912 34010KT HEGN 182300Z 1900/2006 29012KT CAVOK HELX 182300Z 1900/2006 31006KT CAVOK TEMPO 1904/1910 VRB03KT 6000 SCT025 BKN030 HESH 182300Z 1900/2006 34010KT CAVOK LBSF 182300Z 1900/1924 30010KT 5000 RA BR SCT007 OVC015 BECMG 1900/1902 4000 SN BKN005 OVC010 TEMPO 1902/1910 2000 SN OVC005 LCLK 182330Z 1900/1924 32006KT 9999 FEW020 BECMG 1908/1911 21012KT BECMG 1917/1919 33007KT LDZA 182325Z 1900/2000 05008KT 9999 FEW015 OVC030 TX03/1913Z TN01/1905Z PROB30 TEMPO 1900/1906 BKN010 BECMG 1916/1918 2000 -SN BKN008 OVC020 LHBP 182315Z 1900/1924 06007KT CAVOK BECMG 1904/1906 07012KT BECMG 1919/1921 BKN030 LJLJ 182300Z 1900/1924 28004KT 7000 SCT035 BKN070 TEMPO 1900/1909 3500 BR BKN035 BECMG 1909/1912 12005KT FEW040 BKN090 TEMPO 1915/1921 BKN040 OVC070 TEMPO 1916/1924 -SN OVC020 LKPR 182300Z 1900/2006 12002KT 9999 BKN030 BECMG 1904/1907 CAVOK TEMPO 1910/2006 SCT035 BECMG 1910/1913 12005KT LROP 182300Z 1900/1924 06016KT 5000 -RA BR BKN005 OVC015 BECMG 1901/1903 3000 -RASN BR PROB30 TEMPO 1903/1905 1500 SN BKN002 OVC010 BECMG 1905/1907 3000 -SN BKN010 OVC020 BECMG 1915/1917 5000 BKN015 OVC030 LYBE 182300Z 1900/1924 02005KT 7000 SCT033 TX03/1913Z TN00/1906Z TEMPO 1903/1908 2500 BR BECMG 1913/1915 12012KT TEMPO 1918/1924 4000 -SN BKN010 LZIB 182300Z 1900/2000 06004KT CAVOK BECMG 1903/1905 4000 BR SCT006 PROB30 TEMPO 1903/1908 0500 FZFG BKN002 BECMG 1908/1910 9999 SCT035 BECMG 1922/2000 SCT020 BKN060 UKBB 182301Z 1900/1924 30004G09MPS 6000 BKN010 TXM02/1912Z TNM06/1904Z TEMPO 1900/1908 28005G12MPS 1000 SHSN BR SCT003 BKN006 SCT015CB BECMG 1918/1919 27003MPS TEMPO 1919/1924 2000 BR SCT004 ULLI 182258Z 1900/1924 30003MPS 3100 -SN BR BKN011 BKN020 TEMPO 1902/1907 2100 -SHSN BR BKN007 BKN015CB BECMG 1907/1909 6000 NSW TEMPO 1907/1918 3100 -SHSN BR BKN015CB ULMM 182251Z 1900/1924 28003G08MPS 6000 BKN011 TEMPO 1900/1903 VRB01MPS 1000 -SHSN BR BKN003 BKN011CB TEMPO 1903/1924 31003MPS 3100 -SHSN BR BKN011CB UMKK 182256Z 1900/1924 24003G08MPS 3100 -SN BR OVC011 TEMPO 1900/1912 VRB01MPS 0400 SHSNRA FZFG BKN002 BKN012CB BECMG 1914/1916 20002MPS TEMPO 1916/1924 0800 FZFG UUEE 182300Z 1900/1924 13003MPS 3100 -SN BR OVC008 TXM02/1912Z TNM06/1903Z BECMG 1915/1919 31005MPS UUWW 182259Z 1900/1924 10002MPS 2100 -SN BR BKN007 TXM02/1912Z TNM05/1903Z TEMPO 1900/1906 1000 SN BR BKN004 BECMG 1906/1908 3100 -SN BR BKN011 TEMPO 1908/1918 1000 SHSN BR SCT004 BKN012CB BECMG 1908/1910 27005MPS


RocketRoute WX - rrwx.com weather for pilots